createdAt,value
2017-11-07T00:00:47.571Z,5.00
2017-11-07T00:03:18.608Z,5.00
2017-11-07T00:05:49.378Z,5.00
2017-11-07T00:08:20.996Z,5.10
2017-11-07T00:10:51.868Z,5.10
2017-11-07T00:13:22.405Z,4.90
2017-11-07T00:15:53.394Z,4.90
2017-11-07T00:18:24.145Z,4.80
2017-11-07T00:20:54.716Z,4.90
2017-11-07T00:23:25.943Z,5.00
2017-11-07T00:25:56.752Z,5.00
2017-11-07T00:28:27.113Z,4.90
2017-11-07T00:30:57.238Z,5.00
2017-11-07T00:33:28.179Z,4.90
2017-11-07T00:35:58.253Z,4.90
2017-11-07T00:38:29.695Z,5.00
2017-11-07T00:41:02.322Z,5.00
2017-11-07T00:43:32.651Z,4.90
2017-11-07T00:46:03.008Z,4.90
2017-11-07T00:48:33.610Z,4.90
2017-11-07T00:51:04.704Z,5.00
2017-11-07T00:53:34.971Z,5.00
2017-11-07T00:56:07.027Z,4.80
2017-11-07T00:58:37.764Z,4.70
2017-11-07T01:01:08.397Z,4.70
2017-11-07T01:03:38.951Z,4.70
2017-11-07T01:06:10.376Z,4.60
2017-11-07T01:08:41.366Z,4.80
2017-11-07T01:11:11.746Z,4.80
2017-11-07T01:13:41.873Z,4.70
2017-11-07T01:16:12.421Z,4.60
2017-11-07T01:18:42.574Z,4.60
2017-11-07T01:21:14.676Z,4.50
2017-11-07T01:23:45.622Z,4.50
2017-11-07T01:26:16.739Z,4.50
2017-11-07T01:28:47.426Z,4.60
2017-11-07T01:31:17.733Z,4.80
2017-11-07T01:33:48.877Z,4.60
2017-11-07T01:36:19.317Z,4.60
2017-11-07T01:38:49.771Z,4.50
2017-11-07T01:41:20.414Z,4.50
2017-11-07T01:43:50.763Z,4.50
2017-11-07T01:46:27.309Z,4.40
2017-11-07T01:48:58.882Z,4.30
2017-11-07T01:51:29.439Z,4.30
2017-11-07T01:53:59.802Z,4.30
2017-11-07T01:56:30.429Z,4.30
2017-11-07T01:59:01.266Z,4.30
2017-11-07T02:01:32.153Z,4.20
2017-11-07T02:04:03.006Z,4.20
2017-11-07T02:06:33.387Z,4.20
2017-11-07T02:09:04.627Z,4.40
2017-11-07T02:11:35.247Z,4.50
2017-11-07T02:14:05.590Z,4.50
2017-11-07T02:16:35.965Z,4.40
2017-11-07T02:19:07.929Z,4.40
2017-11-07T02:21:39.151Z,4.50
2017-11-07T02:24:10.943Z,4.30
2017-11-07T02:26:41.809Z,4.30
2017-11-07T02:29:12.338Z,4.30
2017-11-07T02:31:42.829Z,4.50
2017-11-07T02:34:13.760Z,4.60
2017-11-07T02:36:44.776Z,4.60
2017-11-07T02:39:15.302Z,4.40
2017-11-07T02:41:45.673Z,4.30
2017-11-07T02:44:16.595Z,4.20
2017-11-07T02:46:48.217Z,4.00
2017-11-07T02:49:18.819Z,4.00
2017-11-07T02:51:49.299Z,4.10
2017-11-07T02:54:20.547Z,4.00
2017-11-07T02:56:50.745Z,4.20
2017-11-07T02:59:21.789Z,4.40
2017-11-07T03:01:52.237Z,4.40
2017-11-07T03:04:23.987Z,4.50
2017-11-07T03:06:54.807Z,4.40
2017-11-07T03:09:25.587Z,4.40
2017-11-07T03:11:56.276Z,4.50
2017-11-07T03:14:26.816Z,4.50
2017-11-07T03:16:57.688Z,4.50
2017-11-07T03:19:28.623Z,4.50
2017-11-07T03:21:59.046Z,4.50
2017-11-07T03:24:29.658Z,4.30
2017-11-07T03:27:00.528Z,4.30
2017-11-07T03:29:32.880Z,4.30
2017-11-07T03:32:03.068Z,4.30
2017-11-07T03:34:34.258Z,4.20
2017-11-07T03:37:04.447Z,4.20
2017-11-07T03:39:34.670Z,4.40
2017-11-07T03:42:05.586Z,4.30
2017-11-07T03:44:35.943Z,4.20
2017-11-07T03:47:07.263Z,4.30
2017-11-07T03:49:38.260Z,4.30
2017-11-07T03:55:41.835Z,4.40
2017-11-07T03:58:13.047Z,4.40
2017-11-07T04:00:43.262Z,4.40
2017-11-07T04:03:15.440Z,4.50
2017-11-07T04:05:45.898Z,4.40
2017-11-07T04:08:16.437Z,4.40
2017-11-07T04:10:47.056Z,4.20
2017-11-07T04:13:18.501Z,4.20
2017-11-07T04:15:49.859Z,4.20
2017-11-07T04:18:20.416Z,4.00
2017-11-07T04:20:51.095Z,4.00
2017-11-07T04:23:22.699Z,4.20
2017-11-07T04:25:53.271Z,4.20
2017-11-07T04:28:24.339Z,4.20
2017-11-07T04:30:54.787Z,4.30
2017-11-07T04:33:25.394Z,4.20
2017-11-07T04:35:55.831Z,4.30
2017-11-07T04:38:26.417Z,4.10
2017-11-07T04:40:57.246Z,4.10
2017-11-07T04:43:29.658Z,4.20
2017-11-07T04:46:00.189Z,4.20
2017-11-07T04:48:31.469Z,3.90
2017-11-07T04:51:02.036Z,3.90
2017-11-07T04:53:32.082Z,3.90
2017-11-07T04:56:04.159Z,3.90
2017-11-07T05:00:03.833Z,4.00
2017-11-07T05:02:34.136Z,3.90
2017-11-07T05:05:04.636Z,3.90
2017-11-07T05:07:35.282Z,3.80
2017-11-07T05:10:06.653Z,4.00
2017-11-07T05:12:37.952Z,4.00
2017-11-07T05:15:09.452Z,3.90
2017-11-07T05:17:40.249Z,3.90
2017-11-07T05:20:11.427Z,4.00
2017-11-07T05:22:41.965Z,4.00
2017-11-07T05:25:12.424Z,4.10
2017-11-07T05:27:43.154Z,4.00
2017-11-07T05:30:14.306Z,4.10
2017-11-07T05:32:45.175Z,4.10
2017-11-07T05:35:15.533Z,4.20
2017-11-07T05:37:47.059Z,4.00
2017-11-07T05:40:17.710Z,4.00
2017-11-07T05:44:17.418Z,4.00
2017-11-07T05:46:48.557Z,4.10
2017-11-07T05:49:20.883Z,3.90
2017-11-07T05:51:52.996Z,3.90
2017-11-07T05:54:23.763Z,3.70
2017-11-07T05:56:55.354Z,3.90
2017-11-07T05:59:25.643Z,3.80
2017-11-07T06:01:57.189Z,4.10
2017-11-07T06:04:28.086Z,4.10
2017-11-07T06:06:58.683Z,4.10
2017-11-07T06:09:29.602Z,4.10
2017-11-07T06:12:00.057Z,4.10
2017-11-07T06:14:30.602Z,4.10
2017-11-07T06:17:05.956Z,4.00
2017-11-07T06:19:36.089Z,3.90
2017-11-07T06:22:06.652Z,3.60
2017-11-07T06:24:37.566Z,3.60
2017-11-07T06:27:08.369Z,3.70
2017-11-07T06:29:38.702Z,3.70
2017-11-07T06:32:12.658Z,3.80
2017-11-07T06:34:42.649Z,3.80
2017-11-07T06:37:12.587Z,3.60
2017-11-07T06:39:43.531Z,3.60
2017-11-07T06:42:15.960Z,3.50
2017-11-07T06:44:46.004Z,3.40
2017-11-07T06:47:17.214Z,3.20
2017-11-07T06:49:49.718Z,3.20
2017-11-07T06:52:20.570Z,3.10
2017-11-07T06:54:50.689Z,3.10
2017-11-07T06:57:20.746Z,3.20
2017-11-07T06:59:51.185Z,3.30
2017-11-07T07:02:21.459Z,3.30
2017-11-07T07:04:51.566Z,3.10
2017-11-07T07:07:22.342Z,2.70
2017-11-07T07:09:52.718Z,2.70
2017-11-07T07:12:22.938Z,2.60
2017-11-07T07:14:53.948Z,2.70
2017-11-07T07:17:24.373Z,2.70
2017-11-07T07:19:54.533Z,2.80
2017-11-07T07:22:25.437Z,3.30
2017-11-07T07:24:55.394Z,3.30
2017-11-07T07:27:27.674Z,3.50
2017-11-07T07:29:57.708Z,3.50
2017-11-07T07:32:27.943Z,3.50
2017-11-07T07:34:57.973Z,3.40
2017-11-07T07:37:28.056Z,3.30
2017-11-07T07:39:58.589Z,3.40
2017-11-07T07:42:29.215Z,3.60
2017-11-07T07:45:00.067Z,3.70
2017-11-07T07:47:30.675Z,3.80
2017-11-07T07:50:00.994Z,3.90
2017-11-07T07:52:32.752Z,3.70
2017-11-07T07:55:03.061Z,3.50
2017-11-07T07:57:33.963Z,3.50
2017-11-07T08:00:05.224Z,3.70
2017-11-07T08:02:36.140Z,3.70
2017-11-07T08:05:07.902Z,4.10
2017-11-07T08:07:39.495Z,4.10
2017-11-07T08:10:10.686Z,3.70
2017-11-07T08:12:40.706Z,3.60
2017-11-07T08:15:10.986Z,3.60
2017-11-07T08:17:41.115Z,3.70
2017-11-07T08:20:14.773Z,3.90
2017-11-07T08:22:46.002Z,3.60
2017-11-07T08:25:16.206Z,3.60
2017-11-07T08:27:46.295Z,3.60
2017-11-07T08:30:16.332Z,3.50
2017-11-07T08:32:47.422Z,3.40
2017-11-07T08:35:19.543Z,3.30
2017-11-07T08:37:50.721Z,3.30
2017-11-07T08:40:20.841Z,3.40
2017-11-07T08:42:52.356Z,3.60
2017-11-07T08:45:22.410Z,3.60
2017-11-07T08:47:53.037Z,3.70
2017-11-07T08:50:23.055Z,3.80
2017-11-07T08:52:53.323Z,4.00
2017-11-07T08:55:23.247Z,4.10
2017-11-07T08:57:54.069Z,3.90
2017-11-07T09:00:24.144Z,3.90
2017-11-07T09:02:54.530Z,4.00
2017-11-07T09:05:25.334Z,4.10
2017-11-07T09:07:55.922Z,4.00
2017-11-07T09:10:26.173Z,3.80
2017-11-07T09:12:56.676Z,3.80
2017-11-07T09:15:27.368Z,3.90
2017-11-07T09:17:57.553Z,3.90
2017-11-07T09:20:27.997Z,3.90
2017-11-07T09:22:58.042Z,4.10
2017-11-07T09:25:28.189Z,4.00
2017-11-07T09:27:59.636Z,3.70
2017-11-07T09:30:29.794Z,3.70
2017-11-07T09:33:02.207Z,3.60
2017-11-07T09:35:32.671Z,3.60
2017-11-07T09:38:02.709Z,3.70
2017-11-07T09:40:33.476Z,3.90
2017-11-07T09:43:03.769Z,3.90
2017-11-07T09:45:35.087Z,4.10
2017-11-07T09:48:06.228Z,4.00
2017-11-07T09:50:36.886Z,4.00
2017-11-07T09:53:08.924Z,3.80
2017-11-07T09:55:38.995Z,3.70
2017-11-07T09:58:09.499Z,3.70
2017-11-07T10:00:39.947Z,3.60
2017-11-07T10:03:10.242Z,3.60
2017-11-07T10:05:40.338Z,3.70
2017-11-07T10:08:10.509Z,3.70
2017-11-07T10:10:41.349Z,3.70
2017-11-07T10:13:11.462Z,3.80
2017-11-07T10:15:41.678Z,3.90
2017-11-07T10:18:12.760Z,4.20
2017-11-07T10:20:43.704Z,4.20
2017-11-07T10:23:15.134Z,4.40
2017-11-07T10:25:47.007Z,4.10
2017-11-07T10:28:17.669Z,4.10
2017-11-07T10:30:48.534Z,4.10
2017-11-07T10:33:18.738Z,4.10
2017-11-07T10:35:48.990Z,4.10
2017-11-07T10:38:19.180Z,4.30
2017-11-07T10:40:49.233Z,4.30
2017-11-07T10:43:19.354Z,4.30
2017-11-07T10:45:50.366Z,4.40
2017-11-07T10:48:20.338Z,4.70
2017-11-07T10:50:51.646Z,4.80
2017-11-07T10:53:21.774Z,4.70
2017-11-07T10:55:52.408Z,4.80
2017-11-07T10:59:52.006Z,5.00
2017-11-07T11:02:23.319Z,4.90
2017-11-07T11:04:53.483Z,5.00
2017-11-07T11:07:23.784Z,5.20
2017-11-07T11:09:54.295Z,5.40
2017-11-07T11:12:25.147Z,5.40
2017-11-07T11:14:55.746Z,5.50
2017-11-07T11:17:27.896Z,5.70
2017-11-07T11:20:00.153Z,6.00
2017-11-07T11:22:30.903Z,6.30
2017-11-07T11:25:01.917Z,7.20
2017-11-07T11:27:32.926Z,7.10
2017-11-07T11:30:03.763Z,7.30
2017-11-07T11:32:34.784Z,7.00
2017-11-07T11:35:06.519Z,6.90
2017-11-07T11:37:37.511Z,6.90
2017-11-07T11:40:08.865Z,6.80
2017-11-07T11:42:39.973Z,7.70
2017-11-07T11:45:10.610Z,8.70
2017-11-07T11:47:40.726Z,9.30
2017-11-07T11:50:12.883Z,9.40
2017-11-07T11:52:43.855Z,10.50
2017-11-07T11:55:14.687Z,10.40
2017-11-07T11:57:44.809Z,10.50
2017-11-07T12:00:15.104Z,9.80
2017-11-07T12:02:45.229Z,9.50
2017-11-07T12:05:16.686Z,9.50
2017-11-07T12:07:47.137Z,9.40
2017-11-07T12:10:18.726Z,9.70
2017-11-07T12:12:50.173Z,9.70
2017-11-07T12:15:21.487Z,9.80
2017-11-07T12:17:52.301Z,9.80
2017-11-07T12:20:23.498Z,9.80
2017-11-07T12:22:54.598Z,10.50
2017-11-07T12:25:24.811Z,10.90
2017-11-07T12:27:55.173Z,10.40
2017-11-07T12:30:25.552Z,9.80
2017-11-07T12:32:57.045Z,9.40
2017-11-07T12:35:27.788Z,10.40
2017-11-07T12:37:58.072Z,11.30
2017-11-07T12:40:28.563Z,11.70
2017-11-07T12:42:59.181Z,11.70
2017-11-07T12:45:29.471Z,10.90
2017-11-07T12:48:00.401Z,10.60
2017-11-07T12:52:42.074Z,10.60
2017-11-07T12:55:12.194Z,10.90
2017-11-07T12:57:43.760Z,10.80
2017-11-07T13:00:14.135Z,10.40
2017-11-07T13:02:46.333Z,10.20
2017-11-07T13:05:17.811Z,10.20
2017-11-07T13:07:49.485Z,10.20
2017-11-07T13:10:19.845Z,10.30
2017-11-07T13:12:50.112Z,10.20
2017-11-07T13:15:20.726Z,10.10
2017-11-07T13:17:51.493Z,10.00
2017-11-07T13:20:23.039Z,9.90
2017-11-07T13:22:53.627Z,9.80
2017-11-07T13:25:24.508Z,9.70
2017-11-07T13:27:55.743Z,9.70
2017-11-07T13:30:30.143Z,9.20
2017-11-07T13:33:01.006Z,9.00
2017-11-07T13:35:31.934Z,9.10
2017-11-07T13:38:02.957Z,9.10
2017-11-07T13:40:34.406Z,9.20
2017-11-07T13:43:05.537Z,9.00
2017-11-07T13:45:37.890Z,9.00
2017-11-07T13:48:09.076Z,8.90
2017-11-07T13:50:39.766Z,9.10
2017-11-07T13:53:11.452Z,9.00
2017-11-07T13:55:43.058Z,9.00
2017-11-07T13:58:15.062Z,9.00
2017-11-07T14:00:46.767Z,8.80
2017-11-07T14:03:18.260Z,8.80
2017-11-07T14:05:48.571Z,8.80
2017-11-07T14:08:19.917Z,8.90
2017-11-07T14:10:50.519Z,8.80
2017-11-07T14:13:21.522Z,8.80
2017-11-07T14:15:52.154Z,8.80
2017-11-07T14:18:23.159Z,8.80
2017-11-07T14:20:54.792Z,8.80
2017-11-07T14:23:25.986Z,8.80
2017-11-07T14:25:57.338Z,8.80
2017-11-07T14:28:27.576Z,8.80
2017-11-07T14:30:59.202Z,8.50
2017-11-07T14:33:30.207Z,8.40
2017-11-07T14:36:01.167Z,8.50
2017-11-07T14:38:31.867Z,8.50
2017-11-07T14:41:03.260Z,8.50
2017-11-07T14:43:34.712Z,8.30
2017-11-07T14:46:05.749Z,8.20
2017-11-07T14:48:36.693Z,8.30
2017-11-07T14:51:06.994Z,8.20
2017-11-07T14:53:37.611Z,8.30
2017-11-07T14:56:09.025Z,8.40
2017-11-07T14:58:40.516Z,8.30
2017-11-07T15:01:10.952Z,8.30
2017-11-07T15:03:41.675Z,8.30
2017-11-07T15:06:12.443Z,8.30
2017-11-07T15:08:45.655Z,8.10
2017-11-07T15:11:16.847Z,8.10
2017-11-07T15:13:51.348Z,8.10
2017-11-07T15:16:21.752Z,8.00
2017-11-07T15:18:52.767Z,8.00
2017-11-07T15:21:24.602Z,8.00
2017-11-07T15:23:55.160Z,8.00
2017-11-07T15:26:25.713Z,7.90
2017-11-07T15:28:55.867Z,7.80
2017-11-07T15:31:27.108Z,7.80
2017-11-07T15:33:57.668Z,7.70
2017-11-07T15:36:29.495Z,7.70
2017-11-07T15:38:59.789Z,7.60
2017-11-07T15:41:30.175Z,7.50
2017-11-07T15:44:00.343Z,7.50
2017-11-07T15:46:30.626Z,7.60
2017-11-07T15:49:01.717Z,7.60
2017-11-07T15:51:32.322Z,7.60
2017-11-07T15:54:02.979Z,7.40
2017-11-07T15:56:33.761Z,7.50
2017-11-07T15:59:06.360Z,7.60
2017-11-07T16:01:39.543Z,7.50
2017-11-07T16:04:10.788Z,7.50
2017-11-07T16:06:41.359Z,7.50
2017-11-07T16:09:11.730Z,7.50
2017-11-07T16:11:43.128Z,7.40
2017-11-07T16:14:13.872Z,7.40
2017-11-07T16:16:44.242Z,7.40
2017-11-07T16:19:15.429Z,7.40
2017-11-07T16:21:46.522Z,7.40
2017-11-07T16:24:20.111Z,7.40
2017-11-07T16:26:50.498Z,7.30
2017-11-07T16:29:20.894Z,7.20
2017-11-07T16:31:51.748Z,7.20
2017-11-07T16:34:22.268Z,7.30
2017-11-07T16:36:53.183Z,7.10
2017-11-07T16:39:25.104Z,7.00
2017-11-07T16:41:56.476Z,7.00
2017-11-07T16:44:27.267Z,7.00
2017-11-07T16:46:57.433Z,7.00
2017-11-07T16:49:27.792Z,7.00
2017-11-07T16:51:57.986Z,7.10
2017-11-07T16:54:28.661Z,7.10
2017-11-07T16:56:59.235Z,7.10
2017-11-07T16:59:29.439Z,7.00
2017-11-07T17:01:59.808Z,6.90
2017-11-07T17:04:30.886Z,6.70
2017-11-07T17:07:03.169Z,6.70
2017-11-07T17:09:34.225Z,6.60
2017-11-07T17:12:04.620Z,6.60
2017-11-07T17:14:36.356Z,6.60
2017-11-07T17:17:06.591Z,6.70
2017-11-07T17:19:36.890Z,6.70
2017-11-07T17:22:07.134Z,6.70
2017-11-07T17:24:37.235Z,6.60
2017-11-07T17:27:07.436Z,6.50
2017-11-07T17:29:38.022Z,6.50
2017-11-07T17:32:08.247Z,6.40
2017-11-07T17:34:38.463Z,6.40
2017-11-07T17:37:08.988Z,6.50
2017-11-07T17:39:39.120Z,6.50
2017-11-07T17:42:09.362Z,6.60
2017-11-07T17:44:41.398Z,6.70
2017-11-07T17:47:11.680Z,6.70
2017-11-07T17:49:41.973Z,6.70
2017-11-07T17:52:12.958Z,6.60
2017-11-07T17:54:43.506Z,6.60
2017-11-07T17:57:13.901Z,6.60
2017-11-07T17:59:44.221Z,6.50
2017-11-07T18:02:15.466Z,6.30
2017-11-07T18:04:45.937Z,6.40
2017-11-07T18:07:16.396Z,6.40
2017-11-07T18:09:46.850Z,6.50
2017-11-07T18:12:17.574Z,6.60
2017-11-07T18:14:47.929Z,6.60
2017-11-07T18:17:18.259Z,6.70
2017-11-07T18:19:49.359Z,6.70
2017-11-07T18:22:19.778Z,6.80
2017-11-07T18:24:50.360Z,6.80
2017-11-07T18:27:20.783Z,6.90
2017-11-07T18:29:52.202Z,6.90
2017-11-07T18:32:23.290Z,7.00
2017-11-07T18:34:54.981Z,6.90
2017-11-07T18:37:28.066Z,6.90
2017-11-07T18:40:06.992Z,6.90
2017-11-07T18:42:41.430Z,6.80
2017-11-07T18:45:12.407Z,6.90
2017-11-07T18:47:45.602Z,6.90
2017-11-07T18:50:23.149Z,6.90
2017-11-07T18:52:57.696Z,6.70
2017-11-07T18:55:30.515Z,6.60
2017-11-07T18:58:01.068Z,6.50
2017-11-07T19:00:31.606Z,6.60
2017-11-07T19:03:05.471Z,6.70
2017-11-07T19:05:37.384Z,6.70
2017-11-07T19:08:08.537Z,6.80
2017-11-07T19:10:41.045Z,6.70
2017-11-07T19:13:12.710Z,6.70
2017-11-07T19:15:43.381Z,6.60
2017-11-07T19:18:15.142Z,6.60
2017-11-07T19:20:48.122Z,6.80
2017-11-07T19:23:19.315Z,6.90
2017-11-07T19:25:53.599Z,6.80
2017-11-07T19:28:25.739Z,6.80
2017-11-07T19:31:00.030Z,6.80
2017-11-07T19:33:31.326Z,6.80
2017-11-07T19:36:02.315Z,6.80
2017-11-07T19:38:33.821Z,6.70
2017-11-07T19:41:07.170Z,6.60
2017-11-07T19:43:38.349Z,6.60
2017-11-07T19:46:12.505Z,6.70
2017-11-07T19:48:46.232Z,6.80
2017-11-07T19:51:17.819Z,6.80
2017-11-07T19:53:50.682Z,6.70
2017-11-07T19:56:25.446Z,6.70
2017-11-07T19:58:56.640Z,6.60
2017-11-07T20:01:28.789Z,6.70
2017-11-07T20:04:01.919Z,6.70
2017-11-07T20:06:33.389Z,6.70
2017-11-07T20:09:05.298Z,6.80
2017-11-07T20:11:36.641Z,6.90
2017-11-07T20:14:07.346Z,6.90
2017-11-07T20:16:39.395Z,6.70
2017-11-07T20:19:10.929Z,6.70
2017-11-07T20:21:42.579Z,6.70
2017-11-07T20:24:13.603Z,6.80
2017-11-07T20:26:44.863Z,6.70
2017-11-07T20:29:15.904Z,6.70
2017-11-07T20:31:47.016Z,6.50
2017-11-07T20:34:19.463Z,6.60
2017-11-07T20:36:57.383Z,6.60
2017-11-07T20:39:29.362Z,6.70
2017-11-07T20:42:01.313Z,6.80
2017-11-07T20:44:42.037Z,6.80
2017-11-07T20:47:13.527Z,6.60
2017-11-07T20:49:45.095Z,6.50
2017-11-07T20:52:16.337Z,6.60
2017-11-07T20:54:52.668Z,6.60
2017-11-07T20:57:29.489Z,6.60
2017-11-07T21:00:05.607Z,6.50
2017-11-07T21:02:42.132Z,6.40
2017-11-07T21:05:12.855Z,6.40
2017-11-07T21:07:43.926Z,6.50
2017-11-07T21:10:18.221Z,6.50
2017-11-07T21:12:54.658Z,6.50
2017-11-07T21:15:30.434Z,6.40
2017-11-07T21:18:09.007Z,6.30
2017-11-07T21:20:40.275Z,6.50
2017-11-07T21:23:21.357Z,6.50
2017-11-07T21:25:53.581Z,6.50
2017-11-07T21:28:34.884Z,6.50
2017-11-07T21:31:06.906Z,6.70
2017-11-07T21:33:39.895Z,6.70
2017-11-07T21:36:14.206Z,6.60
2017-11-07T21:38:45.527Z,6.60
2017-11-07T21:41:17.267Z,6.60
2017-11-07T21:43:53.026Z,6.60
2017-11-07T21:46:23.595Z,6.60
2017-11-07T21:48:54.778Z,6.60
2017-11-07T21:51:26.726Z,6.60
2017-11-07T21:53:57.191Z,6.60
2017-11-07T21:56:28.085Z,6.60
2017-11-07T21:58:59.564Z,6.60
2017-11-07T22:01:30.505Z,6.60
2017-11-07T22:04:02.245Z,6.50
2017-11-07T22:06:34.661Z,6.70
2017-11-07T22:09:07.327Z,6.60
2017-11-07T22:11:37.957Z,6.60
2017-11-07T22:14:09.840Z,6.60
2017-11-07T22:16:47.207Z,6.60
2017-11-07T22:19:22.793Z,6.60
2017-11-07T22:21:53.804Z,6.60
2017-11-07T22:24:25.253Z,6.60
2017-11-07T22:26:55.965Z,6.60
2017-11-07T22:29:27.507Z,6.60
2017-11-07T22:31:58.068Z,6.60
2017-11-07T22:34:28.885Z,6.60
2017-11-07T22:37:00.418Z,6.60
2017-11-07T22:39:33.858Z,6.60
2017-11-07T22:42:05.196Z,6.60
2017-11-07T22:44:36.487Z,6.60
2017-11-07T22:47:07.043Z,6.60
2017-11-07T22:49:37.463Z,6.60
2017-11-07T22:52:07.900Z,6.60
2017-11-07T22:54:38.396Z,6.60
2017-11-07T22:57:10.069Z,6.50
2017-11-07T22:59:40.620Z,6.60
2017-11-07T23:02:11.167Z,6.60
2017-11-07T23:04:42.817Z,6.60
2017-11-07T23:07:14.288Z,6.60
2017-11-07T23:09:44.750Z,6.60
2017-11-07T23:12:16.141Z,6.60
2017-11-07T23:14:47.171Z,6.60
2017-11-07T23:17:17.710Z,6.50
2017-11-07T23:19:48.686Z,6.50
2017-11-07T23:22:19.173Z,6.50
2017-11-07T23:24:50.794Z,6.50
2017-11-07T23:27:21.972Z,6.50
2017-11-07T23:29:52.414Z,6.50
2017-11-07T23:32:23.853Z,6.50
2017-11-07T23:34:55.631Z,6.50
2017-11-07T23:37:26.762Z,6.50
2017-11-07T23:39:57.335Z,6.50
2017-11-07T23:42:30.577Z,6.50
2017-11-07T23:45:01.117Z,6.60
2017-11-07T23:47:41.875Z,6.60
2017-11-07T23:50:21.175Z,6.60
2017-11-07T23:53:00.458Z,6.60
2017-11-07T23:55:36.195Z,6.60
2017-11-07T23:58:15.064Z,6.60
